createdAt,value
2023-02-12T00:01:45.048Z,2.57
2023-02-12T00:04:32.219Z,1.93
2023-02-12T00:07:18.783Z,2.40
2023-02-12T00:10:06.436Z,2.20
2023-02-12T00:12:55.385Z,1.87
2023-02-12T00:15:44.436Z,1.93
2023-02-12T00:18:31.414Z,2.27
2023-02-12T00:21:18.285Z,2.07
2023-02-12T00:24:05.515Z,1.63
2023-02-12T00:26:52.327Z,2.43
2023-02-12T00:29:39.631Z,2.17
2023-02-12T00:32:28.050Z,1.93
2023-02-12T00:35:14.977Z,1.97
2023-02-12T00:38:02.022Z,1.90
2023-02-12T00:40:48.803Z,2.17
2023-02-12T00:43:35.720Z,1.83
2023-02-12T00:46:22.794Z,2.00
2023-02-12T00:49:11.163Z,2.27
2023-02-12T00:51:58.028Z,1.80
2023-02-12T00:54:44.661Z,2.17
2023-02-12T00:57:33.422Z,1.73
2023-02-12T01:00:20.708Z,1.87
2023-02-12T01:03:07.597Z,2.90
2023-02-12T01:09:02.953Z,2.53
2023-02-12T01:11:49.905Z,1.90
2023-02-12T01:14:36.896Z,2.77
2023-02-12T01:17:24.022Z,2.30
2023-02-12T01:20:14.226Z,2.07
2023-02-12T01:23:01.677Z,2.67
2023-02-12T01:25:49.870Z,2.37
2023-02-12T01:28:36.844Z,2.83
2023-02-12T01:31:26.549Z,1.47
2023-02-12T01:34:13.798Z,2.50
2023-02-12T01:37:00.483Z,1.80
2023-02-12T01:39:47.613Z,2.50
2023-02-12T01:42:36.326Z,1.87
2023-02-12T01:45:57.197Z,1.93
2023-02-12T01:48:47.389Z,2.33
2023-02-12T01:51:35.986Z,2.00
2023-02-12T01:54:25.859Z,2.13
2023-02-12T01:57:14.847Z,1.73
2023-02-12T02:00:06.775Z,1.97
2023-02-12T02:02:58.020Z,1.80
2023-02-12T02:05:51.002Z,1.97
2023-02-12T02:08:39.531Z,2.00
2023-02-12T02:11:44.012Z,1.90
2023-02-12T02:14:34.288Z,1.67
2023-02-12T02:17:47.953Z,4.03
2023-02-12T02:21:06.206Z,3.37
2023-02-12T02:24:22.542Z,2.90
2023-02-12T02:27:19.860Z,2.13
2023-02-12T02:30:27.339Z,3.13
2023-02-12T02:33:26.735Z,2.20
2023-02-12T02:36:20.136Z,2.03
2023-02-12T02:39:15.125Z,1.40
2023-02-12T02:42:09.383Z,1.67
2023-02-12T02:45:12.284Z,1.93
2023-02-12T02:48:06.705Z,2.70
2023-02-12T02:50:57.448Z,2.53
2023-02-12T02:53:48.296Z,2.53
2023-02-12T02:56:39.044Z,2.33
2023-02-12T02:59:31.811Z,1.83
2023-02-12T03:02:22.724Z,1.87
2023-02-12T03:05:16.163Z,2.73
2023-02-12T03:08:08.528Z,1.40
2023-02-12T03:10:58.742Z,2.00
2023-02-12T03:13:50.692Z,2.63
2023-02-12T03:16:44.025Z,2.40
2023-02-12T03:19:34.419Z,2.00
2023-02-12T03:22:26.173Z,2.13
2023-02-12T03:25:16.020Z,1.80
2023-02-12T03:28:07.877Z,2.07
2023-02-12T03:31:00.796Z,1.70
2023-02-12T03:34:01.590Z,2.17
2023-02-12T03:36:53.510Z,2.33
2023-02-12T03:39:50.621Z,1.93
2023-02-12T03:42:46.036Z,1.80
2023-02-12T03:45:41.703Z,1.97
2023-02-12T03:48:34.693Z,1.70
2023-02-12T03:51:25.849Z,1.50
2023-02-12T03:54:17.846Z,2.47
2023-02-12T03:57:11.444Z,2.43
2023-02-12T03:59:59.204Z,2.27
2023-02-12T04:02:47.209Z,3.43
2023-02-12T04:05:34.150Z,3.20
2023-02-12T04:08:20.786Z,2.70
2023-02-12T04:11:20.277Z,3.07
2023-02-12T04:14:19.201Z,2.50
2023-02-12T04:17:11.115Z,2.57
2023-02-12T04:20:09.034Z,3.03
2023-02-12T04:23:08.582Z,3.97
2023-02-12T04:26:07.539Z,3.87
2023-02-12T04:29:03.182Z,3.63
2023-02-12T04:31:57.008Z,3.97
2023-02-12T04:34:51.615Z,3.50
2023-02-12T04:37:42.901Z,3.87
2023-02-12T04:40:31.083Z,4.20
2023-02-12T04:43:28.799Z,4.07
2023-02-12T04:46:15.325Z,3.47
2023-02-12T04:49:03.710Z,3.80
2023-02-12T04:51:51.831Z,4.40
2023-02-12T04:54:39.226Z,3.50
2023-02-12T04:57:26.246Z,3.73
2023-02-12T05:00:16.141Z,3.40
2023-02-12T05:03:02.849Z,4.03
2023-02-12T05:05:51.136Z,3.57
2023-02-12T05:08:37.992Z,3.27
2023-02-12T05:11:24.997Z,2.00
2023-02-12T05:14:12.331Z,2.40
2023-02-12T05:16:59.188Z,3.37
2023-02-12T05:19:45.907Z,2.40
2023-02-12T05:22:34.126Z,2.90
2023-02-12T05:25:21.143Z,3.27
2023-02-12T05:28:07.769Z,3.90
2023-02-12T05:30:55.060Z,2.90
2023-02-12T05:33:43.875Z,2.47
2023-02-12T05:36:30.810Z,2.90
2023-02-12T05:39:19.128Z,3.10
2023-02-12T05:42:06.119Z,2.80
2023-02-12T05:44:52.968Z,2.90
2023-02-12T05:47:39.594Z,2.70
2023-02-12T05:50:26.329Z,3.67
2023-02-12T05:53:13.466Z,4.13
2023-02-12T05:56:14.592Z,3.30
2023-02-12T05:59:03.626Z,2.93
2023-02-12T06:01:52.615Z,3.20
2023-02-12T06:04:39.544Z,3.63
2023-02-12T06:07:26.527Z,3.33
2023-02-12T06:10:13.480Z,3.93
2023-02-12T06:13:01.684Z,3.87
2023-02-12T06:15:48.415Z,3.50
2023-02-12T06:18:37.278Z,3.40
2023-02-12T06:21:26.613Z,3.87
2023-02-12T06:24:15.045Z,3.53
2023-02-12T06:27:02.169Z,4.03
2023-02-12T06:29:50.510Z,3.23
2023-02-12T06:32:37.031Z,3.63
2023-02-12T06:35:23.453Z,2.90
2023-02-12T06:38:10.152Z,4.00
2023-02-12T06:40:56.969Z,3.87
2023-02-12T06:43:44.186Z,3.83
2023-02-12T06:46:32.563Z,4.23
2023-02-12T06:49:19.657Z,2.60
2023-02-12T06:52:06.604Z,3.37
2023-02-12T06:54:53.156Z,3.67
2023-02-12T06:57:39.758Z,4.20
2023-02-12T07:00:26.485Z,3.93
2023-02-12T07:03:14.663Z,3.87
2023-02-12T07:06:01.313Z,3.37
2023-02-12T07:08:47.956Z,3.37
2023-02-12T07:11:38.356Z,3.57
2023-02-12T07:14:26.615Z,3.53
2023-02-12T07:17:13.560Z,2.93
2023-02-12T07:20:01.922Z,3.57
2023-02-12T07:22:48.540Z,3.60
2023-02-12T07:25:35.293Z,2.97
2023-02-12T07:28:22.442Z,3.33
2023-02-12T07:31:11.279Z,3.40
2023-02-12T07:33:59.788Z,4.70
2023-02-12T07:36:48.141Z,3.27
2023-02-12T07:39:35.050Z,3.20
2023-02-12T07:42:21.822Z,2.67
2023-02-12T07:45:09.415Z,3.40
2023-02-12T07:47:56.055Z,3.40
2023-02-12T07:50:42.502Z,3.57
2023-02-12T07:53:31.099Z,3.30
2023-02-12T07:56:20.084Z,2.90
2023-02-12T07:59:09.471Z,3.00
2023-02-12T08:01:57.215Z,3.60
2023-02-12T08:04:44.385Z,2.87
2023-02-12T08:07:31.361Z,4.33
2023-02-12T08:10:22.367Z,3.57
2023-02-12T08:13:09.269Z,3.07
2023-02-12T08:16:01.630Z,3.23
2023-02-12T08:18:48.735Z,3.30
2023-02-12T08:21:35.946Z,3.50
2023-02-12T08:24:23.032Z,4.00
2023-02-12T08:27:11.278Z,4.10
2023-02-12T08:29:58.189Z,4.10
2023-02-12T08:32:47.811Z,4.13
2023-02-12T08:35:34.635Z,3.40
2023-02-12T08:38:21.552Z,4.10
2023-02-12T08:41:10.905Z,4.07
2023-02-12T08:44:00.608Z,3.93
2023-02-12T08:46:50.157Z,3.37
2023-02-12T08:49:37.271Z,4.03
2023-02-12T08:52:24.129Z,3.67
2023-02-12T08:55:11.311Z,3.00
2023-02-12T08:57:58.267Z,3.97
2023-02-12T09:00:46.390Z,3.17
2023-02-12T09:03:33.254Z,3.23
2023-02-12T09:06:22.405Z,4.60
2023-02-12T09:09:09.316Z,3.03
2023-02-12T09:11:56.233Z,3.70
2023-02-12T09:14:43.312Z,4.13
2023-02-12T09:17:32.034Z,3.60
2023-02-12T09:20:19.035Z,2.90
2023-02-12T09:23:05.912Z,3.37
2023-02-12T09:25:52.470Z,3.30
2023-02-12T09:28:39.828Z,4.00
2023-02-12T09:31:28.764Z,4.53
2023-02-12T09:34:17.512Z,3.73
2023-02-12T09:37:04.643Z,3.57
2023-02-12T09:39:51.736Z,4.10
2023-02-12T09:42:58.763Z,3.77
2023-02-12T09:45:54.807Z,3.53
2023-02-12T09:48:54.879Z,4.37
2023-02-12T09:51:51.560Z,3.80
2023-02-12T09:54:40.408Z,3.73
2023-02-12T09:57:31.739Z,3.93
2023-02-12T10:00:25.525Z,3.43
2023-02-12T10:03:16.425Z,3.93
2023-02-12T10:06:06.613Z,3.80
2023-02-12T10:09:16.524Z,3.80
2023-02-12T10:12:12.259Z,3.67
2023-02-12T10:15:18.138Z,3.40
2023-02-12T10:18:26.781Z,3.50
2023-02-12T10:21:31.324Z,3.60
2023-02-12T10:24:59.686Z,4.20
2023-02-12T10:27:50.815Z,3.30
2023-02-12T10:30:44.536Z,3.30
2023-02-12T10:33:37.671Z,3.40
2023-02-12T10:36:38.720Z,3.67
2023-02-12T10:39:27.705Z,3.10
2023-02-12T10:42:19.659Z,2.90
2023-02-12T10:45:14.617Z,2.93
2023-02-12T10:48:11.611Z,2.50
2023-02-12T10:51:21.452Z,3.20
2023-02-12T10:54:37.885Z,3.50
2023-02-12T10:57:28.973Z,2.60
2023-02-12T11:00:24.045Z,3.07
2023-02-12T11:03:22.375Z,2.90
2023-02-12T11:06:17.927Z,2.87
2023-02-12T11:09:04.777Z,2.40
2023-02-12T11:11:51.553Z,3.17
2023-02-12T11:14:39.747Z,2.90
2023-02-12T11:17:30.899Z,2.87
2023-02-12T11:20:26.947Z,2.33
2023-02-12T11:23:27.020Z,2.10
2023-02-12T11:26:27.088Z,2.13
2023-02-12T11:29:20.656Z,1.77
2023-02-12T11:32:12.430Z,2.33
2023-02-12T11:35:07.599Z,2.87
2023-02-12T11:37:56.978Z,2.20
2023-02-12T11:40:48.786Z,2.50
2023-02-12T11:43:39.655Z,2.17
2023-02-12T11:46:28.948Z,2.33
2023-02-12T11:49:22.801Z,1.90
2023-02-12T11:52:21.086Z,2.58
2023-02-12T11:55:19.905Z,2.33
2023-02-12T11:58:16.485Z,2.67
2023-02-12T12:01:13.135Z,2.72
2023-02-12T12:04:06.288Z,2.20
2023-02-12T12:06:59.260Z,2.05
2023-02-12T12:09:49.428Z,2.38
2023-02-12T12:12:42.964Z,1.83
2023-02-12T12:15:51.770Z,1.98
2023-02-12T12:19:03.584Z,1.70
2023-02-12T12:22:00.953Z,2.22
2023-02-12T12:24:54.699Z,1.77
2023-02-12T12:28:06.537Z,2.17
2023-02-12T12:31:09.437Z,2.38
2023-02-12T12:34:05.192Z,2.03
2023-02-12T12:37:18.051Z,2.00
2023-02-12T12:40:28.963Z,2.13
2023-02-12T12:43:24.007Z,1.83
2023-02-12T12:46:45.457Z,1.70
2023-02-12T12:49:49.659Z,1.80
2023-02-12T12:53:18.786Z,1.60
2023-02-12T12:56:19.431Z,1.90
2023-02-12T12:59:20.557Z,1.30
2023-02-12T13:02:41.383Z,2.00
2023-02-12T13:06:19.105Z,1.50
2023-02-12T13:09:31.686Z,2.00
2023-02-12T13:12:39.892Z,2.00
2023-02-12T13:15:35.063Z,1.50
2023-02-12T13:18:32.966Z,1.80
2023-02-12T13:21:31.929Z,1.50
2023-02-12T13:24:30.600Z,1.50
2023-02-12T13:27:23.954Z,1.47
2023-02-12T13:30:21.540Z,1.67
2023-02-12T13:33:13.674Z,1.70
2023-02-12T13:36:03.135Z,1.50
2023-02-12T13:38:58.675Z,1.63
2023-02-12T13:41:53.701Z,1.43
2023-02-12T13:44:48.744Z,1.17
2023-02-12T13:47:44.954Z,1.40
2023-02-12T13:50:41.987Z,1.67
2023-02-12T13:53:37.179Z,1.47
2023-02-12T13:56:41.739Z,1.43
2023-02-12T13:59:48.078Z,1.80
2023-02-12T14:02:46.443Z,1.67
2023-02-12T14:05:34.222Z,1.73
2023-02-12T14:08:38.826Z,1.47
2023-02-12T14:11:27.632Z,1.80
2023-02-12T14:14:15.008Z,1.73
2023-02-12T14:17:35.109Z,1.83
2023-02-12T14:20:26.728Z,1.67
2023-02-12T14:23:25.882Z,1.60
2023-02-12T14:26:14.961Z,1.80
2023-02-12T14:29:05.799Z,1.53
2023-02-12T14:31:52.542Z,1.77
2023-02-12T14:34:40.683Z,2.30
2023-02-12T14:37:38.398Z,2.10
2023-02-12T14:40:47.141Z,1.60
2023-02-12T14:43:55.909Z,1.50
2023-02-12T14:46:48.685Z,1.70
2023-02-12T14:49:42.315Z,1.37
2023-02-12T14:52:33.507Z,1.60
2023-02-12T14:55:26.438Z,1.53
2023-02-12T14:58:20.504Z,1.73
2023-02-12T15:01:09.162Z,1.90
2023-02-12T15:03:59.005Z,2.20
2023-02-12T15:06:53.354Z,2.00
2023-02-12T15:09:47.138Z,1.90
2023-02-12T15:12:40.531Z,2.53
2023-02-12T15:15:34.095Z,1.93
2023-02-12T15:18:26.595Z,2.60
2023-02-12T15:21:21.055Z,2.97
2023-02-12T15:24:10.525Z,1.70
2023-02-12T15:27:01.168Z,3.27
2023-02-12T15:29:52.554Z,2.90
2023-02-12T15:32:40.201Z,2.93
2023-02-12T15:35:29.411Z,3.73
2023-02-12T15:38:23.953Z,3.60
2023-02-12T15:41:24.546Z,2.83
2023-02-12T15:44:27.034Z,3.37
2023-02-12T15:47:17.210Z,3.43
2023-02-12T15:50:04.072Z,3.50
2023-02-12T15:52:52.390Z,2.97
2023-02-12T15:55:43.678Z,3.13
2023-02-12T15:58:33.800Z,2.77
2023-02-12T16:01:23.261Z,3.37
2023-02-12T16:04:12.833Z,3.20
2023-02-12T16:07:01.077Z,3.27
2023-02-12T16:09:49.647Z,3.57
2023-02-12T16:12:38.741Z,3.37
2023-02-12T16:15:29.029Z,3.43
2023-02-12T16:18:25.513Z,3.73
2023-02-12T16:21:16.624Z,3.40
2023-02-12T16:24:03.785Z,3.77
2023-02-12T16:26:51.289Z,3.30
2023-02-12T16:29:44.948Z,3.77
2023-02-12T16:32:37.632Z,2.90
2023-02-12T16:35:29.241Z,2.27
2023-02-12T16:38:42.975Z,3.30
2023-02-12T16:41:31.735Z,2.77
2023-02-12T16:44:31.610Z,2.97
2023-02-12T16:47:24.015Z,3.30
2023-02-12T16:50:17.511Z,3.50
2023-02-12T16:53:06.780Z,3.10
2023-02-12T16:55:55.396Z,3.17
2023-02-12T16:58:42.670Z,3.03
2023-02-12T17:01:33.798Z,3.17
2023-02-12T17:04:20.353Z,2.60
2023-02-12T17:07:17.930Z,3.27
2023-02-12T17:10:04.882Z,3.00
2023-02-12T17:12:54.325Z,2.97
2023-02-12T17:15:48.673Z,3.50
2023-02-12T17:45:31.139Z,3.00
2023-02-12T17:48:18.497Z,2.50
2023-02-12T17:51:06.115Z,2.87
2023-02-12T17:53:53.547Z,3.70
2023-02-12T17:56:41.628Z,3.43
2023-02-12T17:59:31.070Z,2.83
2023-02-12T18:02:19.598Z,2.47
2023-02-12T18:05:07.252Z,2.87
2023-02-12T18:07:54.458Z,3.13
2023-02-12T18:10:42.361Z,3.03
2023-02-12T18:13:29.354Z,2.90
2023-02-12T18:16:16.242Z,3.03
2023-02-12T18:19:05.971Z,3.23
2023-02-12T18:21:52.793Z,2.77
2023-02-12T18:24:41.323Z,2.23
2023-02-12T18:27:28.087Z,3.17
2023-02-12T18:30:15.961Z,2.93
2023-02-12T18:33:12.238Z,3.10
2023-02-12T18:36:02.813Z,3.47
2023-02-12T18:38:51.507Z,3.20
2023-02-12T18:41:38.014Z,3.07
2023-02-12T18:44:24.711Z,3.10
2023-02-12T18:47:11.604Z,2.90
2023-02-12T18:49:59.020Z,3.27
2023-02-12T18:52:47.364Z,3.03
2023-02-12T18:55:34.416Z,3.03
2023-02-12T18:58:21.262Z,2.97
2023-02-12T19:01:20.102Z,2.57
2023-02-12T19:04:09.270Z,4.17
2023-02-12T19:06:57.219Z,3.40
2023-02-12T19:09:45.348Z,3.30
2023-02-12T19:12:32.270Z,4.10
2023-02-12T19:15:19.557Z,3.00
2023-02-12T19:18:07.075Z,2.37
2023-02-12T19:20:54.096Z,3.70
2023-02-12T19:23:41.698Z,3.33
2023-02-12T19:26:31.021Z,3.40
2023-02-12T19:29:18.295Z,3.53
2023-02-12T19:32:05.615Z,3.23
2023-02-12T19:34:52.799Z,3.10
2023-02-12T19:37:39.789Z,3.63
2023-02-12T19:40:27.384Z,3.27
2023-02-12T19:43:15.845Z,3.10
2023-02-12T19:46:04.306Z,3.70
2023-02-12T19:48:55.165Z,3.00
2023-02-12T19:51:42.110Z,3.67
2023-02-12T19:54:29.097Z,3.10
2023-02-12T19:57:16.127Z,2.73
2023-02-12T20:00:06.116Z,3.47
2023-02-12T20:02:53.233Z,2.77
2023-02-12T20:05:46.025Z,2.63
2023-02-12T20:08:33.823Z,3.50
2023-02-12T20:11:26.636Z,2.90
2023-02-12T20:14:14.857Z,3.00
2023-02-12T20:17:03.220Z,3.03
2023-02-12T20:19:50.174Z,2.97
2023-02-12T20:22:38.628Z,3.20
2023-02-12T20:25:25.482Z,3.20
2023-02-12T20:28:12.499Z,2.23
2023-02-12T20:30:59.774Z,2.40
2023-02-12T20:33:48.818Z,2.83
2023-02-12T20:36:37.911Z,2.73
2023-02-12T20:39:24.739Z,2.53
2023-02-12T20:42:12.490Z,3.10
2023-02-12T20:44:59.555Z,2.67
2023-02-12T20:47:46.726Z,1.97
2023-02-12T20:50:35.924Z,2.93
2023-02-12T20:53:22.848Z,2.60
2023-02-12T20:56:12.064Z,2.50
2023-02-12T20:58:59.783Z,2.60
2023-02-12T21:01:46.870Z,2.73
2023-02-12T21:04:34.119Z,2.20
2023-02-12T21:07:22.699Z,2.80
2023-02-12T21:10:09.838Z,2.97
2023-02-12T21:12:56.773Z,2.97
2023-02-12T21:15:43.902Z,2.27
2023-02-12T21:18:31.049Z,2.43
2023-02-12T21:21:20.474Z,3.20
2023-02-12T21:24:12.374Z,2.50
2023-02-12T21:26:58.844Z,1.97
2023-02-12T21:29:45.349Z,1.93
2023-02-12T21:32:33.213Z,2.80
2023-02-12T21:35:20.335Z,2.50
2023-02-12T21:38:07.247Z,2.60
2023-02-12T21:40:55.165Z,2.63
2023-02-12T21:43:43.662Z,1.90
2023-02-12T21:46:30.624Z,2.10
2023-02-12T21:49:24.805Z,2.70
2023-02-12T21:52:11.659Z,1.80
2023-02-12T21:54:58.770Z,1.73
2023-02-12T21:57:47.793Z,2.23
2023-02-12T22:00:34.683Z,4.80
2023-02-12T22:03:21.670Z,3.50
2023-02-12T22:06:10.009Z,3.37
2023-02-12T22:09:03.577Z,2.30
2023-02-12T22:11:52.172Z,2.47
2023-02-12T22:14:40.650Z,2.60
2023-02-12T22:17:27.983Z,1.90
2023-02-12T22:20:15.057Z,2.00
2023-02-12T22:23:02.176Z,1.93
2023-02-12T22:25:49.054Z,4.40
2023-02-12T22:28:40.194Z,3.00
2023-02-12T22:31:31.243Z,2.57
2023-02-12T22:34:19.974Z,3.17
2023-02-12T22:37:06.880Z,2.93
2023-02-12T22:39:53.990Z,2.40
2023-02-12T22:42:41.044Z,3.20
2023-02-12T22:45:27.733Z,2.77
2023-02-12T22:48:16.325Z,2.70
2023-02-12T22:51:09.992Z,2.50
2023-02-12T22:53:57.657Z,2.67
2023-02-12T22:56:45.656Z,2.77
2023-02-12T22:59:32.683Z,2.40
2023-02-12T23:02:19.659Z,2.17
2023-02-12T23:05:08.410Z,2.23
2023-02-12T23:07:55.251Z,2.33
2023-02-12T23:10:42.168Z,2.53
2023-02-12T23:13:30.259Z,2.40
2023-02-12T23:16:17.940Z,2.40
2023-02-12T23:19:05.095Z,2.20
2023-02-12T23:21:53.498Z,2.50
2023-02-12T23:24:40.383Z,2.67
2023-02-12T23:27:28.041Z,2.00
2023-02-12T23:30:15.992Z,3.07
2023-02-12T23:33:03.072Z,2.17
2023-02-12T23:35:50.030Z,3.23
2023-02-12T23:38:38.556Z,2.67
2023-02-12T23:41:25.365Z,2.60
2023-02-12T23:44:12.709Z,2.50
2023-02-12T23:46:59.428Z,2.87
2023-02-12T23:49:46.297Z,2.20
2023-02-12T23:52:32.882Z,1.93
2023-02-12T23:55:21.367Z,2.23
2023-02-12T23:58:08.929Z,2.73
